createdAt,value
2023-02-27T00:00:26.066Z,66.95
2023-02-27T00:03:03.080Z,67.25
2023-02-27T00:05:32.347Z,67.11
2023-02-27T00:08:00.298Z,66.89
2023-02-27T00:10:30.978Z,66.90
2023-02-27T00:12:58.981Z,67.16
2023-02-27T00:15:30.908Z,67.69
2023-02-27T00:18:00.448Z,68.10
2023-02-27T00:20:38.433Z,68.03
2023-02-27T00:23:08.404Z,68.18
2023-02-27T00:25:36.662Z,68.41
2023-02-27T00:28:07.417Z,68.01
2023-02-27T00:30:35.282Z,69.09
2023-02-27T00:33:03.674Z,70.40
2023-02-27T00:35:32.835Z,71.45
2023-02-27T00:38:00.784Z,71.29
2023-02-27T00:40:29.066Z,71.32
2023-02-27T00:42:56.865Z,71.20
2023-02-27T00:45:27.661Z,71.59
2023-02-27T00:47:55.422Z,71.37
2023-02-27T00:50:23.296Z,71.52
2023-02-27T00:52:52.572Z,71.89
2023-02-27T00:55:20.531Z,71.47
2023-02-27T00:57:51.462Z,71.47
2023-02-27T01:00:22.510Z,72.43
2023-02-27T01:02:50.408Z,71.79
2023-02-27T01:05:20.758Z,71.70
2023-02-27T01:07:48.585Z,72.36
2023-02-27T01:10:20.919Z,72.07
2023-02-27T01:12:48.712Z,72.18
2023-02-27T01:15:18.759Z,73.73
2023-02-27T01:18:04.663Z,73.31
2023-02-27T01:20:32.593Z,72.36
2023-02-27T01:23:01.562Z,72.73
2023-02-27T01:25:32.926Z,72.17
2023-02-27T01:28:01.433Z,72.53
2023-02-27T01:30:33.206Z,71.44
2023-02-27T01:33:10.306Z,72.61
2023-02-27T01:35:38.161Z,72.32
2023-02-27T01:38:08.484Z,72.44
2023-02-27T01:40:42.108Z,72.94
2023-02-27T01:43:19.453Z,72.29
2023-02-27T01:45:54.752Z,72.39
2023-02-27T01:48:28.443Z,73.81
2023-02-27T01:50:59.598Z,73.93
2023-02-27T01:53:29.278Z,74.75
2023-02-27T01:56:03.687Z,73.84
2023-02-27T01:58:34.635Z,74.58
2023-02-27T02:01:15.244Z,75.07
2023-02-27T02:03:47.666Z,75.45
2023-02-27T02:06:18.286Z,74.40
2023-02-27T02:08:47.612Z,74.31
2023-02-27T02:11:18.131Z,73.73
2023-02-27T02:13:46.594Z,74.46
2023-02-27T02:16:30.672Z,75.42
2023-02-27T02:19:09.992Z,74.70
2023-02-27T02:22:01.750Z,74.92
2023-02-27T02:25:05.718Z,74.68
2023-02-27T02:27:46.892Z,74.53
2023-02-27T02:30:51.130Z,74.62
2023-02-27T02:34:01.313Z,73.84
2023-02-27T02:37:01.892Z,74.11
2023-02-27T02:40:01.621Z,75.08
2023-02-27T02:42:38.588Z,74.40
2023-02-27T02:45:15.261Z,73.53
2023-02-27T02:47:52.310Z,74.56
2023-02-27T02:50:25.805Z,74.27
2023-02-27T02:53:00.653Z,75.06
2023-02-27T02:55:34.073Z,75.01
2023-02-27T02:58:09.172Z,75.09
2023-02-27T03:00:39.817Z,75.16
2023-02-27T03:03:12.717Z,75.46
2023-02-27T03:05:45.195Z,75.85
2023-02-27T03:08:18.496Z,75.30
2023-02-27T03:10:52.649Z,74.34
2023-02-27T03:13:23.374Z,74.63
2023-02-27T03:15:56.605Z,74.25
2023-02-27T03:18:27.375Z,73.95
2023-02-27T03:20:57.384Z,74.19
2023-02-27T03:23:33.945Z,74.53
2023-02-27T03:26:04.918Z,74.35
2023-02-27T03:28:34.131Z,74.41
2023-02-27T03:31:10.034Z,74.16
2023-02-27T03:33:41.155Z,74.63
2023-02-27T03:36:13.667Z,73.78
2023-02-27T03:38:45.740Z,75.22
2023-02-27T03:41:28.610Z,75.16
2023-02-27T03:44:06.986Z,74.34
2023-02-27T03:46:35.080Z,74.02
2023-02-27T03:49:05.601Z,74.11
2023-02-27T03:51:39.172Z,73.82
2023-02-27T03:54:14.467Z,73.89
2023-02-27T03:56:47.325Z,73.14
2023-02-27T03:59:15.824Z,72.93
2023-02-27T04:01:44.507Z,73.43
2023-02-27T04:04:18.697Z,73.61
2023-02-27T04:07:08.020Z,73.49
2023-02-27T04:09:47.763Z,74.15
2023-02-27T04:12:29.519Z,74.50
2023-02-27T04:15:04.005Z,73.69
2023-02-27T04:17:33.287Z,73.67
2023-02-27T04:20:17.790Z,73.63
2023-02-27T04:22:48.427Z,73.10
2023-02-27T04:25:39.160Z,73.04
2023-02-27T04:28:17.497Z,73.33
2023-02-27T04:31:00.023Z,74.27
2023-02-27T04:33:35.622Z,73.51
2023-02-27T04:36:08.639Z,73.20
2023-02-27T04:38:40.105Z,73.49
2023-02-27T04:41:10.870Z,73.60
2023-02-27T04:43:42.525Z,73.06
2023-02-27T04:46:19.372Z,73.56
2023-02-27T04:48:53.327Z,73.54
2023-02-27T04:51:25.931Z,73.94
2023-02-27T04:54:03.129Z,73.48
2023-02-27T04:56:37.926Z,73.30
2023-02-27T04:59:13.784Z,74.70
2023-02-27T05:01:45.008Z,73.87
2023-02-27T05:04:16.037Z,73.14
2023-02-27T05:06:49.223Z,72.05
2023-02-27T05:09:23.733Z,73.25
2023-02-27T05:11:58.535Z,73.87
2023-02-27T05:14:33.053Z,74.04
2023-02-27T05:17:06.406Z,73.60
2023-02-27T05:19:36.141Z,73.49
2023-02-27T05:22:16.629Z,73.07
2023-02-27T05:24:54.596Z,72.66
2023-02-27T05:27:30.581Z,72.90
2023-02-27T05:30:05.938Z,72.79
2023-02-27T05:32:42.393Z,74.16
2023-02-27T05:35:16.925Z,74.21
2023-02-27T05:37:47.439Z,74.42
2023-02-27T05:40:18.273Z,73.88
2023-02-27T05:42:49.140Z,73.10
2023-02-27T05:45:22.589Z,73.37
2023-02-27T05:47:55.225Z,73.87
2023-02-27T05:50:29.343Z,74.05
2023-02-27T05:53:02.221Z,74.27
2023-02-27T05:55:37.170Z,74.69
2023-02-27T05:58:12.252Z,74.49
2023-02-27T06:00:46.361Z,74.55
2023-02-27T06:03:14.792Z,74.52
2023-02-27T06:05:49.371Z,74.83
2023-02-27T06:08:22.587Z,75.27
2023-02-27T06:10:52.816Z,74.94
2023-02-27T06:13:26.091Z,74.30
2023-02-27T06:15:56.377Z,75.10
2023-02-27T06:18:24.526Z,73.65
2023-02-27T06:20:52.540Z,74.42
2023-02-27T06:23:20.600Z,74.18
2023-02-27T06:25:49.711Z,73.86
2023-02-27T06:28:18.788Z,73.87
2023-02-27T06:30:48.190Z,74.29
2023-02-27T06:33:17.451Z,74.56
2023-02-27T06:35:48.922Z,75.02
2023-02-27T06:38:17.255Z,74.97
2023-02-27T06:40:51.246Z,76.08
2023-02-27T06:43:20.034Z,76.15
2023-02-27T06:45:48.030Z,75.81
2023-02-27T06:48:18.805Z,76.02
2023-02-27T06:50:47.589Z,75.36
2023-02-27T06:53:15.766Z,75.91
2023-02-27T06:55:46.850Z,75.31
2023-02-27T06:58:18.696Z,74.28
2023-02-27T07:00:49.626Z,75.03
2023-02-27T07:03:22.346Z,75.80
2023-02-27T07:05:50.495Z,74.92
2023-02-27T07:08:19.044Z,74.89
2023-02-27T07:10:49.213Z,74.46
2023-02-27T07:13:20.581Z,74.50
2023-02-27T07:15:49.120Z,75.49
2023-02-27T07:18:18.959Z,75.32
2023-02-27T07:20:46.981Z,74.83
2023-02-27T07:23:15.143Z,74.45
2023-02-27T07:25:43.162Z,74.62
2023-02-27T07:28:14.966Z,74.47
2023-02-27T07:30:43.178Z,74.29
2023-02-27T07:33:11.466Z,74.84
2023-02-27T07:35:40.842Z,74.40
2023-02-27T07:38:08.836Z,73.97
2023-02-27T07:40:38.350Z,74.69
2023-02-27T07:43:08.884Z,73.77
2023-02-27T07:45:36.876Z,73.47
2023-02-27T07:48:05.936Z,74.80
2023-02-27T07:50:34.041Z,74.14
2023-02-27T07:53:05.532Z,74.68
2023-02-27T07:55:33.384Z,74.65
2023-02-27T07:58:01.721Z,76.13
2023-02-27T08:00:30.073Z,75.17
2023-02-27T08:02:58.218Z,74.77
2023-02-27T08:05:27.558Z,74.24
2023-02-27T08:07:55.582Z,74.93
2023-02-27T08:10:27.076Z,74.14
2023-02-27T08:12:55.271Z,73.96
2023-02-27T08:15:24.598Z,74.58
2023-02-27T08:17:53.777Z,74.12
2023-02-27T08:20:24.700Z,73.20
2023-02-27T08:22:52.790Z,72.91
2023-02-27T08:25:26.964Z,73.36
2023-02-27T08:27:56.472Z,73.45
2023-02-27T08:30:24.564Z,72.46
2023-02-27T08:32:52.780Z,72.74
2023-02-27T08:35:20.932Z,72.11
2023-02-27T08:37:49.879Z,71.75
2023-02-27T08:40:23.755Z,71.67
2023-02-27T08:43:06.846Z,71.78
2023-02-27T08:45:36.538Z,71.53
2023-02-27T08:48:10.664Z,70.76
2023-02-27T08:50:46.060Z,70.74
2023-02-27T08:53:24.403Z,70.36
2023-02-27T08:55:53.675Z,70.68
2023-02-27T08:58:23.743Z,70.56
2023-02-27T09:00:53.632Z,69.21
2023-02-27T09:03:28.997Z,69.12
2023-02-27T09:06:01.691Z,67.92
2023-02-27T09:11:15.531Z,68.47
2023-02-27T09:13:46.012Z,67.85
2023-02-27T09:16:15.172Z,68.17
2023-02-27T09:18:45.669Z,67.72
2023-02-27T09:21:16.091Z,67.03
2023-02-27T09:23:44.196Z,67.64
2023-02-27T09:26:12.133Z,67.31
2023-02-27T09:28:40.561Z,66.62
2023-02-27T09:31:11.034Z,66.91
2023-02-27T09:33:39.561Z,66.84
2023-02-27T09:36:11.919Z,65.59
2023-02-27T09:38:41.496Z,65.23
2023-02-27T09:41:41.810Z,64.23
2023-02-27T09:44:18.113Z,64.94
2023-02-27T09:46:48.560Z,64.63
2023-02-27T09:49:19.953Z,63.06
2023-02-27T09:51:55.511Z,62.75
2023-02-27T09:54:24.086Z,61.91
2023-02-27T09:56:58.322Z,62.73
2023-02-27T09:59:33.088Z,62.03
2023-02-27T10:02:08.971Z,62.29
2023-02-27T10:04:43.674Z,60.85
2023-02-27T10:07:29.641Z,61.04
2023-02-27T10:10:08.766Z,60.27
2023-02-27T10:12:51.139Z,60.06
2023-02-27T10:15:23.458Z,59.59
2023-02-27T10:17:56.501Z,59.16
2023-02-27T10:20:28.723Z,60.32
2023-02-27T10:23:02.008Z,58.39
2023-02-27T10:25:32.523Z,59.03
2023-02-27T10:28:10.370Z,58.99
2023-02-27T10:30:41.319Z,59.62
2023-02-27T10:33:20.860Z,59.42
2023-02-27T10:35:52.589Z,58.66
2023-02-27T10:38:23.648Z,57.71
2023-02-27T10:40:55.249Z,57.22
2023-02-27T10:43:23.294Z,57.25
2023-02-27T10:45:56.166Z,56.82
2023-02-27T10:48:30.819Z,56.06
2023-02-27T10:51:21.830Z,55.94
2023-02-27T10:53:52.045Z,55.56
2023-02-27T10:56:26.300Z,56.68
2023-02-27T10:59:05.792Z,55.40
2023-02-27T11:01:44.728Z,55.08
2023-02-27T11:04:16.003Z,54.02
2023-02-27T11:06:44.138Z,54.28
2023-02-27T11:09:16.502Z,54.74
2023-02-27T11:11:45.185Z,53.58
2023-02-27T11:14:28.114Z,53.65
2023-02-27T11:16:57.874Z,53.17
2023-02-27T11:19:31.793Z,52.87
2023-02-27T11:22:05.526Z,52.89
2023-02-27T11:24:34.317Z,53.15
2023-02-27T11:27:05.439Z,53.15
2023-02-27T11:29:35.396Z,51.93
2023-02-27T11:32:05.187Z,52.75
2023-02-27T11:34:40.916Z,52.37
2023-02-27T11:37:24.070Z,52.04
2023-02-27T11:39:59.000Z,51.97
2023-02-27T11:42:30.442Z,51.91
2023-02-27T11:45:04.398Z,51.70
2023-02-27T11:47:34.686Z,51.97
2023-02-27T11:50:36.996Z,51.22
2023-02-27T11:53:25.394Z,51.74
2023-02-27T11:55:56.877Z,51.66
2023-02-27T11:58:30.819Z,51.03
2023-02-27T12:01:00.141Z,50.79
2023-02-27T12:03:38.095Z,50.73
2023-02-27T12:06:20.119Z,51.35
2023-02-27T12:08:50.739Z,50.35
2023-02-27T12:11:28.817Z,50.65
2023-02-27T12:14:03.092Z,50.02
2023-02-27T12:16:39.664Z,50.08
2023-02-27T12:19:14.418Z,50.02
2023-02-27T12:21:48.489Z,49.99
2023-02-27T12:24:21.872Z,49.94
2023-02-27T12:26:55.280Z,50.21
2023-02-27T12:29:27.425Z,50.69
2023-02-27T12:32:01.994Z,50.62
2023-02-27T12:34:35.928Z,50.07
2023-02-27T12:37:18.992Z,51.02
2023-02-27T12:39:48.156Z,50.08
2023-02-27T12:42:32.281Z,51.17
2023-02-27T12:45:12.152Z,50.74
2023-02-27T12:47:50.202Z,51.62
2023-02-27T12:50:19.128Z,51.27
2023-02-27T12:52:59.069Z,52.43
2023-02-27T12:55:29.106Z,52.66
2023-02-27T12:58:15.259Z,53.31
2023-02-27T13:00:47.402Z,52.08
2023-02-27T13:03:25.128Z,51.27
2023-02-27T13:05:59.337Z,52.08
2023-02-27T13:08:40.793Z,52.80
2023-02-27T13:11:29.782Z,52.74
2023-02-27T13:14:02.500Z,54.46
2023-02-27T13:16:33.522Z,53.43
2023-02-27T13:19:06.178Z,52.74
2023-02-27T13:21:39.840Z,53.29
2023-02-27T13:24:24.337Z,53.68
2023-02-27T13:26:58.441Z,53.76
2023-02-27T13:29:33.000Z,55.06
2023-02-27T13:32:10.282Z,54.43
2023-02-27T13:34:45.428Z,53.67
2023-02-27T13:37:13.541Z,53.19
2023-02-27T13:40:06.213Z,52.14
2023-02-27T13:42:55.152Z,52.13
2023-02-27T13:45:52.667Z,52.65
2023-02-27T13:48:41.452Z,53.96
2023-02-27T13:51:51.055Z,53.63
2023-02-27T13:54:25.168Z,54.23
2023-02-27T13:57:12.454Z,53.94
2023-02-27T13:59:44.371Z,53.23
2023-02-27T14:02:59.389Z,53.27
2023-02-27T14:05:37.048Z,53.26
2023-02-27T14:08:12.257Z,53.40
2023-02-27T14:10:42.040Z,53.76
2023-02-27T14:13:43.367Z,54.23
2023-02-27T14:16:14.285Z,53.97
2023-02-27T14:19:00.798Z,54.05
2023-02-27T14:21:54.462Z,53.85
2023-02-27T14:24:29.909Z,54.30
2023-02-27T14:26:58.148Z,53.62
2023-02-27T14:29:31.709Z,53.83
2023-02-27T14:32:09.017Z,53.47
2023-02-27T14:34:43.578Z,53.56
2023-02-27T14:37:14.725Z,53.22
2023-02-27T14:39:43.203Z,53.39
2023-02-27T14:42:29.278Z,53.78
2023-02-27T14:44:59.730Z,53.72
2023-02-27T14:47:32.422Z,53.56
2023-02-27T14:50:04.695Z,53.40
2023-02-27T14:52:34.646Z,53.16
2023-02-27T14:55:17.815Z,53.42
2023-02-27T14:57:56.282Z,53.14
2023-02-27T15:00:36.279Z,53.20
2023-02-27T15:03:18.481Z,52.01
2023-02-27T15:05:54.137Z,52.08
2023-02-27T15:08:24.072Z,52.29
2023-02-27T15:10:52.709Z,52.20
2023-02-27T15:13:32.577Z,53.47
2023-02-27T15:16:21.322Z,53.53
2023-02-27T15:18:52.297Z,53.22
2023-02-27T15:21:28.962Z,53.57
2023-02-27T15:24:00.013Z,53.53
2023-02-27T15:26:30.127Z,54.50
2023-02-27T15:28:59.775Z,54.51
2023-02-27T15:31:31.209Z,54.46
2023-02-27T15:34:04.572Z,54.30
2023-02-27T15:36:33.978Z,53.63
2023-02-27T15:39:16.481Z,54.49
2023-02-27T15:41:48.754Z,53.79
2023-02-27T15:44:17.813Z,54.49
2023-02-27T15:46:47.888Z,54.13
2023-02-27T15:49:29.807Z,54.18
2023-02-27T15:52:03.567Z,54.45
2023-02-27T15:54:34.866Z,54.02
2023-02-27T15:57:05.132Z,53.29
2023-02-27T15:59:36.452Z,53.49
2023-02-27T16:02:06.489Z,53.77
2023-02-27T16:04:38.611Z,54.25
2023-02-27T16:07:10.691Z,54.15
2023-02-27T16:09:39.657Z,53.26
2023-02-27T16:12:24.116Z,53.46
2023-02-27T16:14:54.038Z,54.38
2023-02-27T16:17:25.681Z,54.88
2023-02-27T16:19:59.827Z,54.07
2023-02-27T16:22:30.499Z,54.35
2023-02-27T16:25:12.283Z,53.42
2023-02-27T16:27:40.855Z,54.02
2023-02-27T16:30:11.962Z,53.12
2023-02-27T16:32:44.029Z,53.84
2023-02-27T16:35:20.460Z,53.67
2023-02-27T16:37:51.703Z,54.00
2023-02-27T16:40:22.506Z,53.05
2023-02-27T16:42:55.463Z,53.95
2023-02-27T16:45:30.821Z,53.78
2023-02-27T16:48:02.932Z,54.10
2023-02-27T16:50:36.948Z,54.52
2023-02-27T16:53:04.778Z,53.69
2023-02-27T16:55:33.775Z,54.27
2023-02-27T16:58:01.859Z,52.82
2023-02-27T17:00:36.516Z,53.76
2023-02-27T17:03:09.686Z,53.77
2023-02-27T17:05:40.508Z,53.57
2023-02-27T17:08:08.377Z,53.45
2023-02-27T17:10:36.196Z,52.71
2023-02-27T17:13:04.099Z,53.05
2023-02-27T17:15:34.907Z,53.76
2023-02-27T17:18:05.547Z,54.00
2023-02-27T17:20:35.482Z,53.58
2023-02-27T17:23:04.854Z,53.61
2023-02-27T17:25:32.699Z,53.90
2023-02-27T17:28:00.593Z,53.70
2023-02-27T17:30:36.620Z,53.42
2023-02-27T17:33:14.079Z,53.75
2023-02-27T17:35:42.149Z,53.76
2023-02-27T17:38:21.406Z,53.21
2023-02-27T17:40:49.446Z,52.86
2023-02-27T17:43:17.360Z,53.55
2023-02-27T17:45:45.617Z,53.78
2023-02-27T17:48:13.606Z,54.14
2023-02-27T17:50:42.962Z,53.94
2023-02-27T17:53:14.822Z,53.13
2023-02-27T17:55:49.853Z,53.32
2023-02-27T17:58:20.458Z,53.12
2023-02-27T18:00:49.587Z,53.81
2023-02-27T18:03:20.297Z,54.09
2023-02-27T18:05:52.613Z,54.24
2023-02-27T18:08:22.628Z,54.20
2023-02-27T18:10:52.620Z,54.54
2023-02-27T18:13:21.815Z,54.13
2023-02-27T18:15:52.725Z,53.97
2023-02-27T18:18:21.694Z,53.68
2023-02-27T18:21:02.673Z,53.36
2023-02-27T18:23:33.494Z,53.58
2023-02-27T18:26:01.774Z,53.74
2023-02-27T18:28:30.241Z,54.20
2023-02-27T18:30:58.340Z,54.11
2023-02-27T18:33:30.992Z,53.39
2023-02-27T18:35:58.883Z,53.02
2023-02-27T18:38:26.734Z,52.49
2023-02-27T18:40:59.886Z,52.61
2023-02-27T18:43:32.545Z,52.86
2023-02-27T18:46:00.904Z,52.62
2023-02-27T18:48:31.624Z,52.94
2023-02-27T18:51:05.995Z,52.65
2023-02-27T18:53:35.599Z,52.26
2023-02-27T18:56:07.499Z,52.61
2023-02-27T18:58:36.009Z,52.93
2023-02-27T19:01:04.875Z,52.83
2023-02-27T19:03:35.594Z,53.73
2023-02-27T19:06:05.657Z,53.55
2023-02-27T19:08:39.793Z,53.64
2023-02-27T19:11:09.154Z,53.89
2023-02-27T19:13:36.984Z,53.98
2023-02-27T19:16:05.758Z,53.65
2023-02-27T19:18:34.819Z,53.84
2023-02-27T19:21:09.734Z,54.60
2023-02-27T19:23:46.948Z,53.47
2023-02-27T19:26:16.430Z,53.62
2023-02-27T19:28:44.437Z,53.64
2023-02-27T19:31:15.622Z,53.93
2023-02-27T19:33:44.087Z,55.54
2023-02-27T19:36:14.019Z,54.68
2023-02-27T19:38:42.315Z,54.56
2023-02-27T19:41:16.684Z,55.03
2023-02-27T19:43:46.696Z,55.75
2023-02-27T19:46:16.984Z,55.30
2023-02-27T19:48:45.350Z,55.32
2023-02-27T19:51:14.906Z,55.41
2023-02-27T19:53:45.460Z,55.89
2023-02-27T19:56:15.185Z,55.29
2023-02-27T19:58:44.452Z,55.36
2023-02-27T20:01:14.072Z,54.79
2023-02-27T20:03:43.803Z,54.49
2023-02-27T20:06:21.957Z,54.43
2023-02-27T20:08:49.976Z,55.17
2023-02-27T20:11:24.911Z,56.13
2023-02-27T20:13:56.753Z,56.69
2023-02-27T20:16:31.411Z,56.49
2023-02-27T20:18:59.636Z,57.22
2023-02-27T20:21:30.502Z,56.24
2023-02-27T20:24:00.849Z,55.84
2023-02-27T20:26:33.338Z,55.79
2023-02-27T20:29:04.102Z,55.94
2023-02-27T20:31:43.402Z,55.91
2023-02-27T20:34:15.355Z,55.54
2023-02-27T20:36:44.496Z,55.45
2023-02-27T20:39:14.270Z,55.87
2023-02-27T20:41:42.601Z,56.29
2023-02-27T20:44:13.281Z,56.06
2023-02-27T20:46:49.277Z,55.39
2023-02-27T20:49:17.909Z,55.06
2023-02-27T20:51:46.167Z,55.32
2023-02-27T20:54:20.420Z,55.85
2023-02-27T20:56:55.383Z,56.02
2023-02-27T20:59:25.147Z,56.28
2023-02-27T21:01:56.020Z,56.12
2023-02-27T21:04:25.625Z,56.26
2023-02-27T21:06:55.875Z,55.92
2023-02-27T21:09:23.754Z,56.19
2023-02-27T21:11:56.440Z,55.90
2023-02-27T21:14:27.134Z,55.40
2023-02-27T21:16:59.969Z,55.00
2023-02-27T21:19:29.764Z,55.06
2023-02-27T21:21:57.580Z,55.86
2023-02-27T21:24:25.510Z,56.25
2023-02-27T21:26:53.312Z,55.51
2023-02-27T21:29:27.551Z,56.17
2023-02-27T21:31:59.627Z,57.11
2023-02-27T21:34:28.919Z,56.81
2023-02-27T21:36:58.073Z,56.54
2023-02-27T21:39:28.189Z,56.50
2023-02-27T21:41:56.476Z,56.25
2023-02-27T21:44:27.821Z,55.95
2023-02-27T21:46:59.137Z,55.96
2023-02-27T21:49:31.206Z,55.98
2023-02-27T21:51:59.055Z,57.00
2023-02-27T21:54:26.895Z,56.44
2023-02-27T21:56:54.848Z,56.62
2023-02-27T21:59:24.399Z,56.44
2023-02-27T22:01:54.522Z,56.36
2023-02-27T22:04:24.200Z,56.50
2023-02-27T22:06:53.987Z,56.36
2023-02-27T22:09:24.850Z,56.78
2023-02-27T22:12:11.083Z,55.94
2023-02-27T22:14:43.171Z,55.85
2023-02-27T22:17:11.391Z,56.50
2023-02-27T22:19:43.887Z,56.30
2023-02-27T22:22:17.888Z,56.52
2023-02-27T22:24:49.610Z,56.19
2023-02-27T22:27:22.226Z,55.49
2023-02-27T22:29:53.436Z,55.63
2023-02-27T22:32:21.982Z,55.23
2023-02-27T22:34:51.532Z,54.46
2023-02-27T22:37:31.265Z,55.00
2023-02-27T22:39:59.168Z,55.63
2023-02-27T22:42:26.988Z,55.51
2023-02-27T22:44:54.806Z,55.92
2023-02-27T22:47:28.940Z,56.16
2023-02-27T22:49:58.583Z,56.15
2023-02-27T22:52:26.454Z,55.86
2023-02-27T22:54:54.434Z,56.72
2023-02-27T22:57:22.335Z,56.22
2023-02-27T23:00:06.215Z,57.10
2023-02-27T23:02:34.208Z,57.31
2023-02-27T23:05:03.367Z,57.13
2023-02-27T23:07:35.437Z,56.77
2023-02-27T23:10:13.191Z,56.86
2023-02-27T23:12:45.275Z,57.20
2023-02-27T23:15:16.233Z,57.57
2023-02-27T23:17:56.560Z,57.58
2023-02-27T23:20:27.903Z,58.12
2023-02-27T23:22:55.838Z,58.23
2023-02-27T23:25:25.733Z,57.79
2023-02-27T23:27:53.619Z,58.31
2023-02-27T23:30:21.659Z,58.82
2023-02-27T23:32:49.561Z,58.32
2023-02-27T23:35:22.377Z,58.42
2023-02-27T23:37:51.864Z,58.65
2023-02-27T23:40:24.807Z,59.16
2023-02-27T23:43:10.323Z,58.97
2023-02-27T23:45:41.119Z,59.30
2023-02-27T23:48:13.924Z,59.78
2023-02-27T23:50:44.473Z,59.87
2023-02-27T23:53:15.633Z,59.30
2023-02-27T23:55:44.492Z,60.62
2023-02-27T23:58:14.299Z,60.92
